Time,TemperatureF,DewpointF,PressureIn,WindDirection,WindDirectionDegrees,WindSpeedMPH,WindSpeedGustMPH,Humidity,HourlyPrecipIn,Conditions,Clouds,dailyrainin,SoftwareType,DateUTC
2013-02-26 00:08:00,46.1,40.0,30.17,WSW,245,6.0,6.0,79,0.00,,,0.00,weatherlink.com 1.10,2013-02-26 08:08:00,
2013-02-26 00:23:00,44.5,41.0,30.17,West,259,4.0,9.0,86,0.00,,,0.00,weatherlink.com 1.10,2013-02-26 08:23:00,
2013-02-26 00:38:00,46.9,38.0,30.17,NE,46,3.0,6.0,71,0.00,,,0.00,weatherlink.com 1.10,2013-02-26 08:38:00,
2013-02-26 00:53:00,47.1,38.0,30.16,ENE,57,4.0,4.0,71,0.00,,,0.00,weatherlink.com 1.10,2013-02-26 08:53:00,
2013-02-26 01:08:00,47.3,39.0,30.16,ENE,58,5.0,9.0,73,0.00,,,0.00,weatherlink.com 1.10,2013-02-26 09:08:00,
2013-02-26 01:23:00,47.8,37.0,30.16,NNE,23,11.0,12.0,66,0.00,,,0.00,weatherlink.com 1.10,2013-02-26 09:23:00,
2013-02-26 01:38:00,48.0,37.0,30.16,NE,37,10.0,13.0,65,0.00,,,0.00,weatherlink.com 1.10,2013-02-26 09:38:00,
2013-02-26 01:53:00,47.0,37.0,30.16,NE,44,8.0,10.0,69,0.00,,,0.00,weatherlink.com 1.10,2013-02-26 09:53:00,
2013-02-26 02:08:00,46.6,36.0,30.15,NNE,25,15.0,16.0,67,0.00,,,0.00,weatherlink.com 1.10,2013-02-26 10:08:00,
2013-02-26 02:23:00,46.4,35.0,30.15,NNE,23,13.0,17.0,64,0.00,,,0.00,weatherlink.com 1.10,2013-02-26 10:23:00,
2013-02-26 02:38:00,46.8,34.0,30.14,NNE,25,11.0,16.0,62,0.00,,,0.00,weatherlink.com 1.10,2013-02-26 10:38:00,
2013-02-26 02:53:00,46.5,34.0,30.15,North,354,11.0,16.0,62,0.00,,,0.00,weatherlink.com 1.10,2013-02-26 10:53:00,
2013-02-26 03:09:00,46.5,34.0,30.14,NNE,20,13.0,15.0,61,0.00,,,0.00,weatherlink.com 1.10,2013-02-26 11:09:00,
2013-02-26 03:24:00,46.5,34.0,30.14,NNE,18,13.0,16.0,61,0.00,,,0.00,weatherlink.com 1.10,2013-02-26 11:24:00,
2013-02-26 03:39:00,46.6,34.0,30.14,NNE,19,14.0,16.0,61,0.00,,,0.00,weatherlink.com 1.10,2013-02-26 11:39:00,
2013-02-26 03:54:00,46.7,35.0,30.14,NNE,27,15.0,16.0,63,0.00,,,0.00,weatherlink.com 1.10,2013-02-26 11:54:00,
2013-02-26 04:09:00,44.5,35.0,30.14,NNE,25,13.0,15.0,69,0.00,,,0.00,weatherlink.com 1.10,2013-02-26 12:09:00,
2013-02-26 04:24:00,43.5,36.0,30.14,North,11,9.0,15.0,75,0.00,,,0.00,weatherlink.com 1.10,2013-02-26 12:24:00,
2013-02-26 04:39:00,42.7,37.0,30.14,NE,51,12.0,15.0,79,0.00,,,0.00,weatherlink.com 1.10,2013-02-26 12:39:00,
2013-02-26 04:54:00,42.7,36.0,30.14,NNE,16,17.0,18.0,77,0.00,,,0.00,weatherlink.com 1.10,2013-02-26 12:54:00,
2013-02-26 05:09:00,42.4,36.0,30.14,NE,47,12.0,15.0,77,0.00,,,0.00,weatherlink.com 1.10,2013-02-26 13:09:00,
2013-02-26 05:24:00,42.4,36.0,30.14,NE,49,9.0,17.0,77,0.00,,,0.00,weatherlink.com 1.10,2013-02-26 13:24:00,
2013-02-26 05:39:00,41.5,36.0,30.14,NE,40,13.0,17.0,80,0.00,,,0.00,weatherlink.com 1.10,2013-02-26 13:39:00,
2013-02-26 05:54:00,41.9,36.0,30.14,NE,37,14.0,18.0,78,0.00,,,0.00,weatherlink.com 1.10,2013-02-26 13:54:00,
2013-02-26 06:09:00,42.8,34.0,30.15,NNE,33,14.0,19.0,72,0.00,,,0.00,weatherlink.com 1.10,2013-02-26 14:09:00,
2013-02-26 06:24:00,45.3,33.0,30.15,NE,47,18.0,26.0,62,0.00,,,0.00,weatherlink.com 1.10,2013-02-26 14:24:00,
2013-02-26 06:39:00,45.6,30.0,30.15,North,4,23.0,27.0,55,0.00,,,0.00,weatherlink.com 1.10,2013-02-26 14:39:00,
2013-02-26 06:54:00,47.5,28.0,30.15,NE,44,15.0,25.0,48,0.00,,,0.00,weatherlink.com 1.10,2013-02-26 14:54:00,
2013-02-26 07:09:00,46.8,30.0,30.15,ENE,71,18.0,22.0,53,0.00,,,0.00,weatherlink.com 1.10,2013-02-26 15:09:00,
2013-02-26 07:24:00,46.3,30.0,30.15,NNE,32,15.0,21.0,54,0.00,,,0.00,weatherlink.com 1.10,2013-02-26 15:24:00,
2013-02-26 07:39:00,46.3,31.0,30.16,NE,46,14.0,21.0,56,0.00,,,0.00,weatherlink.com 1.10,2013-02-26 15:39:00,
2013-02-26 07:54:00,46.9,31.0,30.16,NE,40,12.0,17.0,55,0.00,,,0.00,weatherlink.com 1.10,2013-02-26 15:54:00,
2013-02-26 08:09:00,47.6,31.0,30.17,NE,51,14.0,16.0,52,0.00,,,0.00,weatherlink.com 1.10,2013-02-26 16:09:00,
2013-02-26 08:24:00,48.0,30.0,30.17,NE,41,10.0,14.0,51,0.00,,,0.00,weatherlink.com 1.10,2013-02-26 16:24:00,
2013-02-26 08:39:00,48.8,30.0,30.17,ENE,64,11.0,16.0,48,0.00,,,0.00,weatherlink.com 1.10,2013-02-26 16:39:00,
2013-02-26 08:54:00,48.9,28.0,30.17,NE,37,18.0,20.0,44,0.00,,,0.00,weatherlink.com 1.10,2013-02-26 16:54:00,
2013-02-26 09:09:00,49.3,26.0,30.18,NE,40,13.0,20.0,41,0.00,,,0.00,weatherlink.com 1.10,2013-02-26 17:09:00,
2013-02-26 09:24:00,49.8,26.0,30.18,NE,41,13.0,21.0,40,0.00,,,0.00,weatherlink.com 1.10,2013-02-26 17:24:00,
2013-02-26 09:39:00,50.1,26.0,30.17,NE,40,13.0,19.0,39,0.00,,,0.00,weatherlink.com 1.10,2013-02-26 17:39:00,
2013-02-26 09:54:00,50.3,27.0,30.17,NNE,15,21.0,21.0,40,0.00,,,0.00,weatherlink.com 1.10,2013-02-26 17:54:00,
2013-02-26 10:09:00,51.0,27.0,30.17,NE,53,14.0,20.0,39,0.00,,,0.00,weatherlink.com 1.10,2013-02-26 18:09:00,
2013-02-26 10:24:00,51.2,24.0,30.17,NE,50,12.0,20.0,35,0.00,,,0.00,weatherlink.com 1.10,2013-02-26 18:24:00,
2013-02-26 10:40:00,51.8,25.0,30.16,NE,49,17.0,20.0,35,0.00,,,0.00,weatherlink.com 1.10,2013-02-26 18:40:00,
2013-02-26 10:55:00,51.9,24.0,30.16,ENE,63,17.0,22.0,34,0.00,,,0.00,weatherlink.com 1.10,2013-02-26 18:55:00,
2013-02-26 11:10:00,52.2,25.0,30.16,NE,34,16.0,18.0,35,0.00,,,0.00,weatherlink.com 1.10,2013-02-26 19:10:00,
2013-02-26 11:25:00,52.5,25.0,30.17,NE,48,12.0,16.0,35,0.00,,,0.00,weatherlink.com 1.10,2013-02-26 19:25:00,
2013-02-26 11:40:00,53.8,27.0,30.17,NNE,29,7.0,10.0,35,0.00,,,0.00,weatherlink.com 1.10,2013-02-26 19:40:00,
2013-02-26 11:55:00,54.5,25.0,30.17,ENE,63,7.0,8.0,32,0.00,,,0.00,weatherlink.com 1.10,2013-02-26 19:55:00,
2013-02-26 12:10:00,55.3,26.0,30.17,NE,49,6.0,8.0,32,0.00,,,0.00,weatherlink.com 1.10,2013-02-26 20:10:00,
2013-02-26 12:25:00,56.2,25.0,30.16,ENE,57,6.0,9.0,30,0.00,,,0.00,weatherlink.com 1.10,2013-02-26 20:25:00,
2013-02-26 12:40:00,57.7,24.0,30.16,NNW,346,5.0,7.0,27,0.00,,,0.00,weatherlink.com 1.10,2013-02-26 20:40:00,
2013-02-26 12:55:00,58.5,28.0,30.15,SW,229,3.0,9.0,31,0.00,,,0.00,weatherlink.com 1.10,2013-02-26 20:55:00,
2013-02-26 13:10:00,57.9,34.0,30.15,SSW,211,7.0,8.0,40,0.00,,,0.00,weatherlink.com 1.10,2013-02-26 21:10:00,
2013-02-26 13:25:00,57.3,32.0,30.14,SW,231,11.0,12.0,39,0.00,,,0.00,weatherlink.com 1.10,2013-02-26 21:25:00,
2013-02-26 13:40:00,57.6,35.0,30.14,SW,233,9.0,13.0,43,0.00,,,0.00,weatherlink.com 1.10,2013-02-26 21:40:00,
2013-02-26 13:55:00,57.2,36.0,30.13,WSW,239,14.0,15.0,45,0.00,,,0.00,weatherlink.com 1.10,2013-02-26 21:55:00,
2013-02-26 14:10:00,57.3,37.0,30.13,SW,231,11.0,16.0,47,0.00,,,0.00,weatherlink.com 1.10,2013-02-26 22:10:00,
2013-02-26 14:25:00,57.2,39.0,30.12,WSW,250,10.0,17.0,50,0.00,,,0.00,weatherlink.com 1.10,2013-02-26 22:25:00,
2013-02-26 14:40:00,56.0,39.0,30.12,WSW,243,13.0,16.0,54,0.00,,,0.00,weatherlink.com 1.10,2013-02-26 22:40:00,
2013-02-26 14:55:00,54.8,42.0,30.12,SW,229,16.0,18.0,62,0.00,,,0.00,weatherlink.com 1.10,2013-02-26 22:55:00,
2013-02-26 15:10:00,53.9,43.0,30.11,SW,235,17.0,18.0,67,0.00,,,0.00,weatherlink.com 1.10,2013-02-26 23:10:00,
2013-02-26 15:25:00,52.3,44.0,30.12,WSW,243,16.0,19.0,72,0.00,,,0.00,weatherlink.com 1.10,2013-02-26 23:25:00,
2013-02-26 15:40:00,51.5,43.0,30.11,SW,224,13.0,17.0,73,0.00,,,0.00,weatherlink.com 1.10,2013-02-26 23:40:00,
2013-02-26 15:55:00,51.0,43.0,30.11,WSW,246,13.0,15.0,74,0.00,,,0.00,weatherlink.com 1.10,2013-02-26 23:55:00,
2013-02-26 16:10:00,55.0,43.0,30.11,WSW,241,8.0,12.0,65,0.00,,,0.00,weatherlink.com 1.10,2013-02-27 00:10:00,
2013-02-26 16:25:00,54.6,43.0,30.11,SW,233,4.0,9.0,66,0.00,,,0.00,weatherlink.com 1.10,2013-02-27 00:25:00,
2013-02-26 16:40:00,54.4,44.0,30.12,SW,233,6.0,9.0,69,0.00,,,0.00,weatherlink.com 1.10,2013-02-27 00:40:00,
2013-02-26 16:55:00,56.3,44.0,30.11,SW,231,3.0,5.0,63,0.00,,,0.00,weatherlink.com 1.10,2013-02-27 00:55:00,
2013-02-26 17:10:00,58.1,45.0,30.12,WSW,240,3.0,5.0,61,0.00,,,0.00,weatherlink.com 1.10,2013-02-27 01:10:00,
2013-02-26 17:25:00,58.8,42.0,30.12,SW,235,4.0,5.0,55,0.00,,,0.00,weatherlink.com 1.10,2013-02-27 01:25:00,
2013-02-26 17:40:00,58.1,42.0,30.12,WNW,283,5.0,5.0,56,0.00,,,0.00,weatherlink.com 1.10,2013-02-27 01:40:00,
2013-02-26 17:55:00,58.4,37.0,30.12,NW,304,2.0,4.0,45,0.00,,,0.00,weatherlink.com 1.10,2013-02-27 01:55:00,
2013-02-26 18:40:00,59.1,31.0,30.13,West,276,0.0,2.0,34,0.00,,,0.00,weatherlink.com 1.10,2013-02-27 02:40:00,
2013-02-26 18:55:00,59.2,31.0,30.13,WNW,283,3.0,5.0,35,0.00,,,0.00,weatherlink.com 1.10,2013-02-27 02:55:00,
2013-02-26 19:10:00,59.5,30.0,30.13,WNW,293,2.0,5.0,33,0.00,,,0.00,weatherlink.com 1.10,2013-02-27 03:10:00,
2013-02-26 19:25:00,57.8,37.0,30.14,ESE,102,1.0,3.0,46,0.00,,,0.00,weatherlink.com 1.10,2013-02-27 03:25:00,
2013-02-26 19:41:00,56.2,34.0,30.14,NNW,339,0.0,2.0,44,0.00,,,0.00,weatherlink.com 1.10,2013-02-27 03:41:00,
2013-02-26 19:55:00,57.8,31.0,30.14,ESE,102,1.0,5.0,37,0.00,,,0.00,weatherlink.com 1.10,2013-02-27 03:55:00,
2013-02-26 20:10:00,59.1,28.0,30.14,NW,311,3.0,5.0,31,0.00,,,0.00,weatherlink.com 1.10,2013-02-27 04:10:00,
2013-02-26 20:25:00,58.4,30.0,30.15,NW,320,0.0,3.0,34,0.00,,,0.00,weatherlink.com 1.10,2013-02-27 04:25:00,
2013-02-26 20:40:00,57.8,31.0,30.15,NE,54,2.0,2.0,37,0.00,,,0.00,weatherlink.com 1.10,2013-02-27 04:40:00,
2013-02-26 20:55:00,56.4,30.0,30.15,ENE,61,3.0,6.0,37,0.00,,,0.00,weatherlink.com 1.10,2013-02-27 04:55:00,
2013-02-26 21:10:00,54.1,33.0,30.16,East,96,4.0,5.0,45,0.00,,,0.00,weatherlink.com 1.10,2013-02-27 05:10:00,
2013-02-26 21:25:00,55.7,28.0,30.16,NW,326,3.0,6.0,34,0.00,,,0.00,weatherlink.com 1.10,2013-02-27 05:25:00,
2013-02-26 21:40:00,58.0,28.0,30.16,West,262,1.0,5.0,32,0.00,,,0.00,weatherlink.com 1.10,2013-02-27 05:40:00,
2013-02-26 21:55:00,56.8,28.0,30.16,North,360,4.0,4.0,33,0.00,,,0.00,weatherlink.com 1.10,2013-02-27 05:55:00,
2013-02-26 22:10:00,55.5,30.0,30.16,NE,47,7.0,7.0,38,0.00,,,0.00,weatherlink.com 1.10,2013-02-27 06:10:00,
2013-02-26 22:25:00,54.3,32.0,30.17,NNW,339,5.0,8.0,43,0.00,,,0.00,weatherlink.com 1.10,2013-02-27 06:25:00,
2013-02-26 22:41:00,54.5,32.0,30.17,North,356,1.0,3.0,43,0.00,,,0.00,weatherlink.com 1.10,2013-02-27 06:41:00,
2013-02-26 22:55:00,56.1,32.0,30.17,NNE,23,2.0,7.0,40,0.00,,,0.00,weatherlink.com 1.10,2013-02-27 06:55:00,
2013-02-26 23:10:00,56.1,31.0,30.17,NNE,20,4.0,6.0,39,0.00,,,0.00,weatherlink.com 1.10,2013-02-27 07:10:00,
2013-02-26 23:26:00,56.5,31.0,30.18,North,350,2.0,6.0,38,0.00,,,0.00,weatherlink.com 1.10,2013-02-27 07:26:00,
2013-02-26 23:41:00,57.0,29.0,30.18,North,349,2.0,4.0,35,0.00,,,0.00,weatherlink.com 1.10,2013-02-27 07:41:00,
2013-02-26 23:56:00,56.2,30.0,30.18,NNW,346,4.0,7.0,37,0.00,,,0.00,weatherlink.com 1.10,2013-02-27 07:56:00,